createdAt,value
2024-03-31T00:00:55.770Z,325.0009
2024-03-31T00:01:59.083Z,327.0009
2024-03-31T00:03:02.062Z,328.0009
2024-03-31T00:04:05.219Z,327.0009
2024-03-31T00:05:08.509Z,329.0008
2024-03-31T00:06:11.624Z,326.0008
2024-03-31T00:07:14.808Z,327.0009
2024-03-31T00:08:17.808Z,327.0009
2024-03-31T00:09:20.860Z,0.0000
2024-03-31T00:10:23.868Z,0.0000
2024-03-31T00:11:27.081Z,328.0009
2024-03-31T00:12:30.162Z,0.0000
2024-03-31T00:13:33.217Z,328.0009
2024-03-31T00:14:36.532Z,328.0009
2024-03-31T00:15:39.630Z,327.0009
2024-03-31T00:16:42.590Z,327.0009
2024-03-31T00:17:45.690Z,327.0009
2024-03-31T00:18:48.819Z,45.0000
2024-03-31T00:19:51.876Z,45.0000
2024-03-31T00:20:54.895Z,45.0000
2024-03-31T00:21:57.942Z,44.0000
2024-03-31T00:23:00.982Z,0.0000
2024-03-31T00:24:04.053Z,45.0000
2024-03-31T00:25:07.084Z,45.0000
2024-03-31T00:26:10.122Z,45.0000
2024-03-31T00:27:13.068Z,45.0000
2024-03-31T00:28:16.229Z,45.0000
2024-03-31T00:29:20.405Z,45.0000
2024-03-31T00:30:23.365Z,0.0000
2024-03-31T00:31:26.487Z,0.0000
2024-03-31T00:32:29.729Z,0.0000
2024-03-31T00:33:32.839Z,44.0000
2024-03-31T00:34:37.024Z,45.0000
2024-03-31T00:35:40.038Z,0.0000
2024-03-31T00:36:43.107Z,44.0000
2024-03-31T00:37:46.144Z,45.0000
2024-03-31T00:38:49.145Z,45.0000
2024-03-31T00:39:52.218Z,45.0000
2024-03-31T00:40:55.259Z,45.0000
2024-03-31T00:41:59.235Z,0.0000
2024-03-31T00:43:02.296Z,0.0000
2024-03-31T00:44:05.335Z,0.0000
2024-03-31T00:45:08.538Z,45.0000
2024-03-31T00:46:11.651Z,45.0000
2024-03-31T00:47:14.831Z,45.0000
2024-03-31T00:48:17.927Z,45.0000
2024-03-31T00:49:20.889Z,319.0008
2024-03-31T00:50:23.827Z,320.0009
2024-03-31T00:51:26.819Z,327.0009
2024-03-31T00:52:29.887Z,326.0008
2024-03-31T00:53:33.022Z,336.0008
2024-03-31T00:54:36.022Z,337.0009
2024-03-31T00:55:39.104Z,337.0009
2024-03-31T00:56:42.064Z,337.0009
2024-03-31T00:57:45.157Z,353.0008
2024-03-31T00:58:48.192Z,353.0008
2024-03-31T00:59:51.290Z,353.0008
2024-03-31T01:00:54.296Z,4.0000
2024-03-31T01:01:57.348Z,4.0000
2024-03-31T01:03:00.425Z,4.0000
2024-03-31T01:04:03.415Z,4.0000
2024-03-31T01:05:06.485Z,15.0008
2024-03-31T01:06:09.476Z,19.0000
2024-03-31T01:07:12.542Z,44.0000
2024-03-31T01:08:15.535Z,3.0000
2024-03-31T01:09:20.764Z,3.0000
2024-03-31T01:10:23.908Z,1.0000
2024-03-31T01:11:26.936Z,0.0000
2024-03-31T01:12:30.006Z,0.0000
2024-03-31T01:13:32.988Z,0.0000
2024-03-31T01:14:36.058Z,0.0000
2024-03-31T01:15:39.088Z,356.0008
2024-03-31T01:16:42.143Z,356.0008
2024-03-31T01:17:45.174Z,35.0000
2024-03-31T01:18:48.234Z,21.0000
2024-03-31T01:19:51.168Z,20.0000
2024-03-31T01:20:54.494Z,351.0009
2024-03-31T01:21:57.644Z,350.0009
2024-03-31T01:23:00.622Z,350.0009
2024-03-31T01:24:03.748Z,350.0009
2024-03-31T01:25:06.798Z,352.0009
2024-03-31T01:26:09.971Z,350.0009
2024-03-31T01:27:13.094Z,348.0009
2024-03-31T01:28:16.232Z,349.0008
2024-03-31T01:29:19.411Z,349.0008
2024-03-31T01:30:22.375Z,346.0008
2024-03-31T01:31:25.579Z,351.0009
2024-03-31T01:32:28.847Z,352.0009
2024-03-31T01:33:32.019Z,354.0009
2024-03-31T01:34:35.074Z,17.0008
2024-03-31T01:35:38.339Z,15.0008
2024-03-31T01:36:41.447Z,4.0000
2024-03-31T01:37:44.538Z,34.0000
2024-03-31T01:38:55.197Z,14.0000
2024-03-31T01:39:56.376Z,29.0000
2024-03-31T01:40:59.431Z,28.0000
2024-03-31T01:42:02.456Z,341.0009
2024-03-31T01:43:05.481Z,341.0009
2024-03-31T01:44:08.520Z,341.0009
2024-03-31T01:45:11.503Z,341.0009
2024-03-31T01:46:14.649Z,341.0009
2024-03-31T01:47:17.663Z,341.0009
2024-03-31T01:48:20.828Z,14.0009
2024-03-31T01:49:23.961Z,8.0008
2024-03-31T01:50:27.059Z,23.0000
2024-03-31T01:51:30.313Z,23.0000
2024-03-31T01:52:33.377Z,23.0000
2024-03-31T01:53:36.580Z,23.0000
2024-03-31T01:54:39.808Z,357.0009
2024-03-31T01:55:42.935Z,357.0009
2024-03-31T01:56:45.987Z,4.0000
2024-03-31T01:57:48.984Z,4.0000
2024-03-31T01:58:51.934Z,4.0000
2024-03-31T01:59:55.076Z,16.0000
2024-03-31T02:00:58.270Z,359.0008
2024-03-31T02:02:01.365Z,16.0000
2024-03-31T02:03:04.539Z,15.0000
2024-03-31T02:04:07.730Z,16.0000
2024-03-31T02:05:10.818Z,18.0000
2024-03-31T02:06:13.972Z,18.0000
2024-03-31T02:07:16.954Z,18.0000
2024-03-31T02:08:20.072Z,18.0000
2024-03-31T02:09:23.099Z,18.0000
2024-03-31T02:10:26.097Z,18.0000
2024-03-31T02:11:29.153Z,18.0000
2024-03-31T02:12:32.231Z,18.0000
2024-03-31T02:13:35.251Z,18.0000
2024-03-31T02:14:38.241Z,41.0000
2024-03-31T02:15:41.337Z,41.0000
2024-03-31T02:16:44.384Z,41.0000
2024-03-31T02:17:47.405Z,41.0000
2024-03-31T02:18:50.447Z,41.0000
2024-03-31T02:19:53.423Z,0.0000
2024-03-31T02:20:56.474Z,41.0000
2024-03-31T02:21:59.600Z,41.0000
2024-03-31T02:23:02.606Z,0.0000
2024-03-31T02:24:05.588Z,41.0000
2024-03-31T02:25:08.573Z,41.0000
2024-03-31T02:26:11.723Z,41.0000
2024-03-31T02:27:14.700Z,41.0000
2024-03-31T02:28:17.768Z,41.0000
2024-03-31T02:29:20.859Z,41.0000
2024-03-31T02:30:23.853Z,41.0000
2024-03-31T02:31:26.950Z,41.0000
2024-03-31T02:32:29.949Z,41.0000
2024-03-31T02:33:33.022Z,41.0000
2024-03-31T02:34:36.047Z,41.0000
2024-03-31T02:35:39.046Z,0.0000
2024-03-31T02:36:42.140Z,0.0000
2024-03-31T02:37:45.118Z,0.0000
2024-03-31T02:38:48.219Z,0.0000
2024-03-31T02:39:51.239Z,0.0000
2024-03-31T02:40:54.248Z,0.0000
2024-03-31T02:41:57.355Z,0.0000
2024-03-31T02:43:00.377Z,0.0000
2024-03-31T02:44:03.358Z,0.0000
2024-03-31T02:45:06.387Z,0.0000
2024-03-31T02:46:09.380Z,0.0000
2024-03-31T02:47:12.486Z,0.0000
2024-03-31T02:48:15.583Z,0.0000
2024-03-31T02:49:18.557Z,0.0000
2024-03-31T02:50:21.638Z,0.0000
2024-03-31T02:51:24.686Z,0.0000
2024-03-31T02:52:27.747Z,0.0000
2024-03-31T02:53:30.790Z,41.0000
2024-03-31T02:54:33.826Z,0.0000
2024-03-31T02:55:36.829Z,0.0000
2024-03-31T02:56:39.924Z,0.0000
2024-03-31T02:57:42.949Z,0.0000
2024-03-31T02:58:45.981Z,0.0000
2024-03-31T02:59:48.967Z,0.0000
2024-03-31T03:00:52.030Z,0.0000
2024-03-31T03:01:55.085Z,41.0000
2024-03-31T03:02:58.149Z,41.0000
2024-03-31T03:04:01.135Z,0.0000
2024-03-31T03:05:04.191Z,0.0000
2024-03-31T03:06:07.188Z,0.0000
2024-03-31T03:07:10.269Z,0.0000
2024-03-31T03:08:13.355Z,0.0000
2024-03-31T03:09:16.362Z,0.0000
2024-03-31T03:10:19.351Z,0.0000
2024-03-31T03:11:22.456Z,0.0000
2024-03-31T03:12:26.475Z,41.0000
2024-03-31T03:13:29.443Z,341.0009
2024-03-31T03:14:32.550Z,341.0009
2024-03-31T03:15:35.597Z,342.0008
2024-03-31T03:16:38.574Z,306.0009
2024-03-31T03:17:41.638Z,305.0008
2024-03-31T03:18:44.731Z,306.0009
2024-03-31T03:19:47.711Z,307.0009
2024-03-31T03:20:50.780Z,306.0009
2024-03-31T03:21:53.836Z,306.0009
2024-03-31T03:22:56.823Z,306.0009
2024-03-31T03:23:59.785Z,307.0009
2024-03-31T03:25:02.942Z,306.0009
2024-03-31T03:26:05.998Z,307.0009
2024-03-31T03:27:09.014Z,307.0009
2024-03-31T03:28:12.060Z,305.0008
2024-03-31T03:29:15.061Z,307.0009
2024-03-31T03:30:18.116Z,306.0009
2024-03-31T03:31:21.163Z,307.0009
2024-03-31T03:32:24.219Z,246.0004
2024-03-31T03:33:27.364Z,240.0004
2024-03-31T03:34:30.380Z,240.0004
2024-03-31T03:35:33.545Z,237.0004
2024-03-31T03:36:36.545Z,237.0004
2024-03-31T03:37:39.639Z,236.0004
2024-03-31T03:38:42.779Z,235.0004
2024-03-31T03:39:45.768Z,237.0004
2024-03-31T03:40:48.743Z,236.0004
2024-03-31T03:41:51.873Z,236.0004
2024-03-31T03:42:54.929Z,236.0004
2024-03-31T03:43:57.967Z,236.0004
2024-03-31T03:45:00.987Z,237.0004
2024-03-31T03:46:04.061Z,236.0004
2024-03-31T03:47:07.125Z,236.0004
2024-03-31T03:48:10.113Z,236.0004
2024-03-31T03:49:13.173Z,237.0004
2024-03-31T03:50:16.167Z,237.0004
2024-03-31T03:51:19.264Z,236.0004
2024-03-31T03:52:22.315Z,0.0000
2024-03-31T03:53:25.369Z,237.0004
2024-03-31T03:54:28.372Z,237.0004
2024-03-31T03:55:31.388Z,39.0000
2024-03-31T03:56:34.323Z,39.0000
2024-03-31T03:57:37.420Z,40.0000
2024-03-31T03:58:40.566Z,39.0000
2024-03-31T03:59:43.591Z,39.0000
2024-03-31T04:00:46.579Z,34.0000
2024-03-31T04:01:50.633Z,42.0000
2024-03-31T04:02:53.597Z,42.0000
2024-03-31T04:03:56.708Z,42.0000
2024-03-31T04:04:59.743Z,42.0000
2024-03-31T04:06:02.757Z,42.0000
2024-03-31T04:07:05.805Z,42.0000
2024-03-31T04:08:08.869Z,42.0000
2024-03-31T04:09:11.837Z,54.0000
2024-03-31T04:10:14.963Z,54.0000
2024-03-31T04:11:17.987Z,0.0000
2024-03-31T04:12:20.962Z,0.0000
2024-03-31T04:13:24.040Z,0.0000
2024-03-31T04:14:27.097Z,0.0000
2024-03-31T04:15:30.094Z,0.0000
2024-03-31T04:16:33.186Z,54.0000
2024-03-31T04:17:36.221Z,54.0000
2024-03-31T04:18:39.226Z,54.0000
2024-03-31T04:19:42.148Z,54.0000
2024-03-31T04:20:45.136Z,0.0000
2024-03-31T04:21:48.257Z,54.0000
2024-03-31T04:22:51.224Z,55.0000
2024-03-31T04:23:54.322Z,54.0000
2024-03-31T04:24:57.471Z,54.0000
2024-03-31T04:26:00.535Z,0.0000
2024-03-31T04:27:03.588Z,0.0000
2024-03-31T04:28:06.613Z,0.0000
2024-03-31T04:29:09.648Z,54.0000
2024-03-31T04:30:12.708Z,54.0000
2024-03-31T04:31:15.760Z,0.0000
2024-03-31T04:32:18.774Z,54.0000
2024-03-31T04:33:21.874Z,54.0000
2024-03-31T04:34:24.867Z,54.0000
2024-03-31T04:35:27.852Z,54.0000
2024-03-31T04:36:30.926Z,54.0000
2024-03-31T04:37:33.990Z,54.0000
2024-03-31T04:38:36.977Z,53.0000
2024-03-31T04:39:39.958Z,54.0000
2024-03-31T04:40:43.085Z,28.0000
2024-03-31T04:41:46.280Z,28.0000
2024-03-31T04:42:49.375Z,44.0000
2024-03-31T04:43:52.523Z,44.0000
2024-03-31T04:44:55.725Z,45.0000
2024-03-31T04:45:58.820Z,45.0000
2024-03-31T04:47:01.965Z,44.0000
2024-03-31T04:48:05.172Z,71.0000
2024-03-31T04:49:08.169Z,71.0000
2024-03-31T04:50:11.300Z,71.0000
2024-03-31T04:51:14.438Z,70.0000
2024-03-31T04:52:17.498Z,0.0000
2024-03-31T04:53:20.539Z,71.0000
2024-03-31T04:54:23.549Z,71.0000
2024-03-31T04:55:26.603Z,0.0000
2024-03-31T04:56:29.649Z,70.0000
2024-03-31T04:57:32.658Z,71.0000
2024-03-31T04:58:35.705Z,70.0000
2024-03-31T04:59:38.799Z,71.0000
2024-03-31T05:00:41.893Z,71.0000
2024-03-31T05:01:44.854Z,71.0000
2024-03-31T05:02:47.904Z,71.0000
2024-03-31T05:03:50.962Z,0.0000
2024-03-31T05:04:53.994Z,0.0000
2024-03-31T05:05:57.011Z,0.0000
2024-03-31T05:07:00.025Z,0.0000
2024-03-31T05:08:03.043Z,71.0000
2024-03-31T05:09:05.989Z,71.0000
2024-03-31T05:10:09.059Z,71.0000
2024-03-31T05:11:12.225Z,70.0000
2024-03-31T05:12:15.286Z,70.0000
2024-03-31T05:13:18.498Z,71.0000
2024-03-31T05:14:21.583Z,70.0000
2024-03-31T05:15:24.708Z,70.0000
2024-03-31T05:16:27.739Z,71.0000
2024-03-31T05:17:30.757Z,71.0000
2024-03-31T05:18:33.832Z,70.0000
2024-03-31T05:19:36.839Z,70.0000
2024-03-31T05:20:39.787Z,71.0000
2024-03-31T05:21:42.916Z,68.0000
2024-03-31T05:22:45.983Z,69.0000
2024-03-31T05:23:49.024Z,68.0000
2024-03-31T05:24:52.059Z,68.0000
2024-03-31T05:25:55.123Z,68.0000
2024-03-31T05:26:58.144Z,69.0000
2024-03-31T05:28:01.147Z,68.0000
2024-03-31T05:29:04.240Z,69.0000
2024-03-31T05:30:07.245Z,69.0000
2024-03-31T05:31:10.377Z,69.0000
2024-03-31T05:32:13.563Z,68.0000
2024-03-31T05:33:16.673Z,68.0000
2024-03-31T05:34:19.649Z,68.0000
2024-03-31T05:35:22.756Z,67.0000
2024-03-31T05:36:25.825Z,68.0000
2024-03-31T05:37:28.862Z,69.0000
2024-03-31T05:38:31.919Z,69.0000
2024-03-31T05:39:34.927Z,68.0000
2024-03-31T05:40:37.920Z,68.0000
2024-03-31T05:41:41.001Z,68.0000
2024-03-31T05:42:44.078Z,58.0000
2024-03-31T05:43:47.031Z,55.0000
2024-03-31T05:44:50.180Z,55.0000
2024-03-31T05:45:53.167Z,55.0000
2024-03-31T05:46:56.365Z,55.0000
2024-03-31T05:47:59.507Z,55.0000
2024-03-31T05:49:02.632Z,55.0000
2024-03-31T05:50:05.795Z,55.0000
2024-03-31T05:51:08.892Z,50.0000
2024-03-31T05:52:12.037Z,50.0000
2024-03-31T05:53:15.243Z,50.0000
2024-03-31T05:54:18.367Z,50.0000
2024-03-31T05:55:21.330Z,49.0000
2024-03-31T05:56:24.415Z,49.0000
2024-03-31T05:57:27.604Z,50.0000
2024-03-31T05:58:30.602Z,50.0000
2024-03-31T05:59:33.582Z,50.0000
2024-03-31T06:00:36.537Z,54.0000
2024-03-31T06:01:39.619Z,56.0000
2024-03-31T06:02:42.765Z,55.0000
2024-03-31T06:03:45.805Z,42.0000
2024-03-31T06:04:48.872Z,16.0000
2024-03-31T06:05:51.893Z,30.0000
2024-03-31T06:06:54.962Z,50.0000
2024-03-31T06:07:58.024Z,41.0000
2024-03-31T06:09:01.005Z,54.0000
2024-03-31T06:10:04.125Z,30.0000
2024-03-31T06:11:07.118Z,27.0000
2024-03-31T06:12:10.110Z,25.0000
2024-03-31T06:13:13.123Z,45.0000
2024-03-31T06:14:16.208Z,59.0000
2024-03-31T06:15:19.233Z,59.0000
2024-03-31T06:16:22.211Z,57.0000
2024-03-31T06:17:25.475Z,45.0000
2024-03-31T06:18:28.583Z,52.0000
2024-03-31T06:19:31.860Z,35.0000
2024-03-31T06:20:34.967Z,41.0000
2024-03-31T06:21:38.085Z,37.0000
2024-03-31T06:22:41.317Z,65.0000
2024-03-31T06:23:44.421Z,45.0000
2024-03-31T06:24:47.616Z,13.0000
2024-03-31T06:25:50.607Z,23.0000
2024-03-31T06:26:53.665Z,29.0000
2024-03-31T06:27:56.707Z,34.0000
2024-03-31T06:28:59.889Z,18.0000
2024-03-31T06:30:02.982Z,27.0000
2024-03-31T06:31:06.016Z,18.0000
2024-03-31T06:32:09.360Z,41.0000
2024-03-31T06:33:12.428Z,25.0000
2024-03-31T06:34:15.564Z,29.0000
2024-03-31T06:35:18.764Z,40.0000
2024-03-31T06:36:21.851Z,47.0000
2024-03-31T06:37:25.025Z,33.0000
2024-03-31T06:38:28.065Z,41.0000
2024-03-31T06:39:31.089Z,38.0000
2024-03-31T06:40:34.164Z,21.0000
2024-03-31T06:41:37.159Z,56.0000
2024-03-31T06:42:40.201Z,32.0000
2024-03-31T06:43:43.260Z,30.0000
2024-03-31T06:44:46.304Z,50.0000
2024-03-31T06:45:49.367Z,30.0000
2024-03-31T06:46:52.389Z,52.0000
2024-03-31T06:47:55.409Z,9.0000
2024-03-31T06:48:58.471Z,8.0000
2024-03-31T06:50:01.505Z,10.0000
2024-03-31T06:51:04.684Z,54.0000
2024-03-31T06:52:09.686Z,27.0000
2024-03-31T06:53:12.792Z,46.0000
2024-03-31T06:54:15.773Z,0.0000
2024-03-31T06:55:18.918Z,20.0000
2024-03-31T06:56:22.098Z,18.0000
2024-03-31T06:57:25.250Z,38.0000
2024-03-31T06:58:28.263Z,9.0000
2024-03-31T06:59:31.364Z,33.0000
2024-03-31T07:00:34.466Z,35.0000
2024-03-31T07:01:37.457Z,42.0000
2024-03-31T07:02:40.690Z,29.0000
2024-03-31T07:03:43.799Z,32.0000
2024-03-31T07:04:46.904Z,33.0000
2024-03-31T07:05:49.922Z,51.0000
2024-03-31T07:06:53.002Z,12.0000
2024-03-31T07:07:56.080Z,12.0000
2024-03-31T07:08:59.040Z,42.0000
2024-03-31T07:10:02.093Z,39.0000
2024-03-31T07:11:05.188Z,55.0000
2024-03-31T07:12:08.241Z,46.0000
2024-03-31T07:13:11.232Z,45.0000
2024-03-31T07:14:14.331Z,51.0000
2024-03-31T07:15:17.382Z,51.0000
2024-03-31T07:16:20.398Z,51.0000
2024-03-31T07:17:23.443Z,42.0000
2024-03-31T07:18:26.471Z,41.0000
2024-03-31T07:19:29.519Z,41.0000
2024-03-31T07:20:32.540Z,29.0000
2024-03-31T07:21:35.569Z,42.0000
2024-03-31T07:22:38.580Z,42.0000
2024-03-31T07:23:41.766Z,5.0000
2024-03-31T07:24:44.770Z,8.0000
2024-03-31T07:25:47.955Z,8.0000
2024-03-31T07:26:51.102Z,9.0008
2024-03-31T07:27:54.114Z,9.0008
2024-03-31T07:28:57.175Z,15.0008
2024-03-31T07:30:00.257Z,16.0008
2024-03-31T07:31:03.246Z,3.0008
2024-03-31T07:32:06.188Z,70.0000
2024-03-31T07:33:09.325Z,1.0000
2024-03-31T07:34:12.583Z,33.0000
2024-03-31T07:35:15.753Z,41.0000
2024-03-31T07:36:18.795Z,34.0000
2024-03-31T07:37:21.822Z,32.0000
2024-03-31T07:38:24.867Z,42.0000
2024-03-31T07:39:27.846Z,45.0000
2024-03-31T07:40:30.926Z,48.0000
2024-03-31T07:41:34.142Z,39.0000
2024-03-31T07:42:37.225Z,36.0000
2024-03-31T07:43:40.374Z,32.0000
2024-03-31T07:44:43.423Z,30.0000
2024-03-31T07:45:46.463Z,56.0000
2024-03-31T07:46:49.510Z,39.0000
2024-03-31T07:47:52.558Z,21.0000
2024-03-31T07:48:55.578Z,11.0009
2024-03-31T07:49:58.622Z,36.0000
2024-03-31T07:51:01.613Z,61.0000
2024-03-31T07:52:04.724Z,41.0000
2024-03-31T07:53:09.349Z,38.0000
2024-03-31T07:54:13.978Z,45.0000
2024-03-31T07:55:17.164Z,8.0008
2024-03-31T07:56:20.283Z,28.0000
2024-03-31T07:57:23.389Z,57.0000
2024-03-31T07:58:26.390Z,65.0000
2024-03-31T07:59:29.493Z,37.0000
2024-03-31T08:00:32.544Z,11.0009
2024-03-31T08:01:35.722Z,0.0000
2024-03-31T08:02:38.818Z,63.0000
2024-03-31T08:03:41.981Z,33.0000
2024-03-31T08:04:44.968Z,15.0008
2024-03-31T08:05:48.069Z,0.0000
2024-03-31T08:06:51.125Z,14.0009
2024-03-31T08:07:54.104Z,0.0000
2024-03-31T08:08:57.179Z,36.0000
2024-03-31T08:10:00.292Z,31.0000
2024-03-31T08:11:03.390Z,19.0000
2024-03-31T08:12:06.507Z,39.0000
2024-03-31T08:13:09.535Z,41.0000
2024-03-31T08:14:12.851Z,0.0000
2024-03-31T08:15:15.943Z,32.0000
2024-03-31T08:16:19.083Z,22.0000
2024-03-31T08:17:22.263Z,2.0000
2024-03-31T08:18:25.392Z,9.0000
2024-03-31T08:19:28.561Z,39.0000
2024-03-31T08:20:31.611Z,6.0000
2024-03-31T08:21:34.594Z,20.0000
2024-03-31T08:22:37.645Z,20.0000
2024-03-31T08:23:40.726Z,47.0000
2024-03-31T08:24:43.753Z,41.0000
2024-03-31T08:25:46.809Z,55.0000
2024-03-31T08:26:49.777Z,49.0000
2024-03-31T08:27:52.858Z,36.0000
2024-03-31T08:28:55.934Z,3.0000
2024-03-31T08:29:58.932Z,5.0000
2024-03-31T08:31:01.948Z,10.0000
2024-03-31T08:32:05.033Z,51.0000
2024-03-31T08:33:08.037Z,36.0000
2024-03-31T08:34:11.016Z,45.0000
2024-03-31T08:35:14.147Z,55.0000
2024-03-31T08:36:17.190Z,19.0000
2024-03-31T08:37:20.414Z,0.0000
2024-03-31T08:38:23.590Z,14.0009
2024-03-31T08:39:26.583Z,11.0000
2024-03-31T08:40:29.668Z,353.0008
2024-03-31T08:41:32.690Z,350.0009
2024-03-31T08:42:35.719Z,0.0000
2024-03-31T08:43:38.963Z,7.0000
2024-03-31T08:44:42.139Z,56.0000
2024-03-31T08:45:45.162Z,36.0000
2024-03-31T08:46:48.223Z,8.0000
2024-03-31T08:47:51.237Z,1.0000
2024-03-31T08:48:54.301Z,0.0000
2024-03-31T08:49:57.317Z,13.0000
2024-03-31T08:51:00.384Z,14.0000
2024-03-31T08:52:03.460Z,24.0000
2024-03-31T08:53:06.439Z,21.0000
2024-03-31T08:54:09.505Z,47.0000
2024-03-31T08:55:12.549Z,34.0000
2024-03-31T08:56:15.514Z,25.0000
2024-03-31T08:57:18.615Z,25.0000
2024-03-31T08:58:21.693Z,20.0000
2024-03-31T08:59:24.674Z,10.0008
2024-03-31T09:00:27.754Z,51.0000
2024-03-31T09:01:30.779Z,50.0000
2024-03-31T09:02:33.966Z,358.0009
2024-03-31T09:03:36.959Z,43.0000
2024-03-31T09:04:39.947Z,0.0000
2024-03-31T09:05:42.912Z,21.0000
2024-03-31T09:06:45.988Z,50.0000
2024-03-31T09:07:49.015Z,50.0000
2024-03-31T09:08:52.018Z,32.0000
2024-03-31T09:09:55.299Z,346.0008
2024-03-31T09:10:58.464Z,348.0009
2024-03-31T09:12:01.472Z,345.0009
2024-03-31T09:13:07.198Z,14.0009
2024-03-31T09:14:10.408Z,15.0008
2024-03-31T09:15:13.501Z,4.0000
2024-03-31T09:16:16.549Z,4.0000
2024-03-31T09:17:19.595Z,38.0000
2024-03-31T09:18:22.642Z,8.0000
2024-03-31T09:19:25.739Z,8.0000
2024-03-31T09:20:28.696Z,23.0000
2024-03-31T09:21:31.746Z,16.0000
2024-03-31T09:22:34.784Z,322.0008
2024-03-31T09:23:37.947Z,340.0009
2024-03-31T09:24:41.055Z,343.0008
2024-03-31T09:25:44.225Z,6.0008
2024-03-31T09:26:47.399Z,15.0008
2024-03-31T09:27:50.504Z,25.0000
2024-03-31T09:28:53.669Z,10.0008
2024-03-31T09:29:56.655Z,355.0009
2024-03-31T09:30:59.753Z,266.0004
2024-03-31T09:32:02.762Z,350.0009
2024-03-31T09:33:05.766Z,341.0009
2024-03-31T09:34:08.853Z,11.0009
2024-03-31T09:35:11.920Z,8.0008
2024-03-31T09:36:14.902Z,9.0000
2024-03-31T09:37:17.988Z,52.0000
2024-03-31T09:38:21.001Z,32.0000
2024-03-31T09:39:24.024Z,13.0000
2024-03-31T09:40:27.080Z,33.0000
2024-03-31T09:41:30.153Z,59.0000
2024-03-31T09:42:33.147Z,35.0000
2024-03-31T09:43:36.222Z,38.0000
2024-03-31T09:44:39.269Z,357.0009
2024-03-31T09:45:42.443Z,25.0000
2024-03-31T09:46:45.536Z,20.0000
2024-03-31T09:47:48.710Z,15.0008
2024-03-31T09:48:51.764Z,9.0000
2024-03-31T09:49:54.759Z,67.0000
2024-03-31T09:50:57.825Z,13.0000
2024-03-31T09:52:00.825Z,42.0000
2024-03-31T09:53:03.883Z,5.0000
2024-03-31T09:54:06.950Z,36.0000
2024-03-31T09:55:09.924Z,21.0000
2024-03-31T09:56:13.020Z,32.0000
2024-03-31T09:57:16.062Z,66.0000
2024-03-31T09:58:19.088Z,53.0000
2024-03-31T09:59:22.107Z,26.0000
2024-03-31T10:00:25.086Z,33.0000
2024-03-31T10:01:28.201Z,59.0000
2024-03-31T10:02:31.198Z,38.0000
2024-03-31T10:03:34.283Z,35.0000
2024-03-31T10:04:37.331Z,0.0000
2024-03-31T10:05:40.336Z,0.0000
2024-03-31T10:06:43.429Z,14.0009
2024-03-31T10:07:46.475Z,0.0000
2024-03-31T10:08:49.671Z,355.0009
2024-03-31T10:09:52.809Z,338.0009
2024-03-31T10:10:55.882Z,327.0009
2024-03-31T10:11:59.095Z,49.0000
2024-03-31T10:13:02.182Z,20.0000
2024-03-31T10:14:05.307Z,29.0000
2024-03-31T10:15:08.527Z,336.0008
2024-03-31T10:16:11.623Z,321.0009
2024-03-31T10:17:14.746Z,323.0009
2024-03-31T10:18:17.808Z,14.0009
2024-03-31T10:19:20.902Z,18.0000
2024-03-31T10:20:23.857Z,39.0000
2024-03-31T10:21:26.858Z,32.0000
2024-03-31T10:22:29.975Z,31.0000
2024-03-31T10:23:33.030Z,39.0000
2024-03-31T10:24:36.029Z,41.0000
2024-03-31T10:25:39.075Z,32.0000
2024-03-31T10:26:42.091Z,41.0000
2024-03-31T10:27:45.144Z,54.0000
2024-03-31T10:28:48.206Z,27.0000
2024-03-31T10:29:51.249Z,47.0000
2024-03-31T10:30:54.311Z,22.0000
2024-03-31T10:31:57.343Z,32.0000
2024-03-31T10:33:00.356Z,24.0000
2024-03-31T10:34:03.434Z,35.0000
2024-03-31T10:35:06.646Z,32.0000
2024-03-31T10:36:09.828Z,94.0004
2024-03-31T10:37:12.847Z,69.0000
2024-03-31T10:38:15.855Z,50.0000
2024-03-31T10:39:18.958Z,50.0000
2024-03-31T10:40:21.970Z,82.0000
2024-03-31T10:41:25.010Z,2.0000
2024-03-31T10:42:28.084Z,2.0000
2024-03-31T10:43:31.069Z,3.0000
2024-03-31T10:44:34.162Z,13.0008
2024-03-31T10:45:37.186Z,318.0008
2024-03-31T10:46:40.183Z,346.0008
2024-03-31T10:47:43.428Z,13.0008
2024-03-31T10:48:46.638Z,14.0000
2024-03-31T10:49:49.624Z,51.0000
2024-03-31T10:50:52.670Z,30.0000
2024-03-31T10:51:55.769Z,61.0000
2024-03-31T10:52:58.776Z,34.0000
2024-03-31T10:54:01.829Z,14.0009
2024-03-31T10:55:04.864Z,13.0008
2024-03-31T10:56:07.849Z,55.0000
2024-03-31T10:57:10.874Z,27.0000
2024-03-31T10:58:13.975Z,28.0000
2024-03-31T10:59:17.019Z,49.0000
2024-03-31T11:00:20.199Z,48.0000
2024-03-31T11:01:23.308Z,26.0000
2024-03-31T11:02:26.473Z,24.0000
2024-03-31T11:03:29.522Z,57.0000
2024-03-31T11:04:32.552Z,57.0000
2024-03-31T11:05:35.526Z,30.0000
2024-03-31T11:06:38.519Z,35.0000
2024-03-31T11:07:41.538Z,50.0000
2024-03-31T11:08:44.731Z,41.0000
2024-03-31T11:09:47.763Z,44.0000
2024-03-31T11:10:50.775Z,33.0000
2024-03-31T11:11:55.003Z,38.0000
2024-03-31T11:12:59.102Z,31.0000
2024-03-31T11:14:02.163Z,0.0000
2024-03-31T11:15:05.308Z,39.0000
2024-03-31T11:16:08.418Z,39.0000
2024-03-31T11:17:11.591Z,42.0000
2024-03-31T11:18:14.746Z,20.0000
2024-03-31T11:19:20.025Z,9.0008
2024-03-31T11:20:24.422Z,10.0000
2024-03-31T11:21:27.624Z,31.0000
2024-03-31T11:22:30.610Z,29.0000
2024-03-31T11:23:33.661Z,15.0000
2024-03-31T11:24:36.713Z,48.0000
2024-03-31T11:25:39.721Z,51.0000
2024-03-31T11:26:42.763Z,50.0000
2024-03-31T11:27:45.851Z,47.0000
2024-03-31T11:28:48.809Z,35.0000
2024-03-31T11:29:51.881Z,36.0000
2024-03-31T11:30:54.979Z,37.0000
2024-03-31T11:31:58.002Z,49.0000
2024-03-31T11:33:01.065Z,48.0000
2024-03-31T11:34:04.114Z,43.0000
2024-03-31T11:35:07.104Z,42.0000
2024-03-31T11:36:10.113Z,13.0000
2024-03-31T11:37:13.104Z,23.0000
2024-03-31T11:38:16.149Z,41.0000
2024-03-31T11:39:19.183Z,51.0000
2024-03-31T11:40:22.215Z,345.0009
2024-03-31T11:41:25.218Z,4.0000
2024-03-31T11:42:28.239Z,48.0000
2024-03-31T11:43:31.294Z,26.0000
2024-03-31T11:44:34.287Z,38.0000
2024-03-31T11:45:37.330Z,37.0000
2024-03-31T11:46:40.360Z,36.0000
2024-03-31T11:47:43.368Z,34.0000
2024-03-31T11:48:46.367Z,15.0000
2024-03-31T11:49:49.383Z,58.0000
2024-03-31T11:50:52.414Z,29.0000
2024-03-31T11:51:55.419Z,12.0000
2024-03-31T11:52:58.419Z,2.0008
2024-03-31T11:54:01.422Z,44.0000
2024-03-31T11:55:04.455Z,52.0000
2024-03-31T11:56:07.456Z,8.0000
2024-03-31T11:57:10.484Z,27.0000
2024-03-31T11:58:13.485Z,26.0000
2024-03-31T11:59:16.485Z,9.0000
2024-03-31T12:00:19.492Z,15.0008
2024-03-31T12:01:22.523Z,317.0009
2024-03-31T12:02:25.536Z,358.0009
2024-03-31T12:03:28.524Z,9.0000
2024-03-31T12:04:31.577Z,337.0009
2024-03-31T12:05:34.536Z,324.0009
2024-03-31T12:06:37.558Z,356.0008
2024-03-31T12:07:40.593Z,12.0008
2024-03-31T12:08:47.542Z,3.0008
2024-03-31T12:09:51.037Z,325.0009
2024-03-31T12:10:54.041Z,50.0000
2024-03-31T12:11:59.900Z,349.0008
2024-03-31T12:13:03.421Z,83.0000
2024-03-31T12:14:06.438Z,44.0000
2024-03-31T12:15:09.468Z,44.0000
2024-03-31T12:16:12.471Z,44.0000
2024-03-31T12:17:15.464Z,300.0009
2024-03-31T12:18:18.483Z,333.0009
2024-03-31T12:19:21.459Z,8.0000
2024-03-31T12:20:24.483Z,13.0000
2024-03-31T12:21:27.500Z,14.0000
2024-03-31T12:22:30.519Z,4.0000
2024-03-31T12:23:33.587Z,4.0000
2024-03-31T12:24:36.587Z,4.0000
2024-03-31T12:25:39.563Z,4.0000
2024-03-31T12:26:42.569Z,43.0000
2024-03-31T12:27:45.525Z,31.0000
2024-03-31T12:28:48.560Z,32.0000
2024-03-31T12:29:51.585Z,0.0000
2024-03-31T12:30:54.612Z,32.0000
2024-03-31T12:31:57.868Z,32.0000
2024-03-31T12:33:00.822Z,32.0000
2024-03-31T12:34:03.795Z,31.0000
2024-03-31T12:35:06.818Z,33.0000
2024-03-31T12:36:09.785Z,32.0000
2024-03-31T12:37:12.773Z,55.0000
2024-03-31T12:38:15.796Z,39.0000
2024-03-31T12:39:18.800Z,39.0000
2024-03-31T12:40:21.849Z,11.0009
2024-03-31T12:41:25.951Z,318.0008
2024-03-31T12:42:29.152Z,249.0004
2024-03-31T12:43:32.140Z,249.0004
2024-03-31T12:44:35.144Z,9.0008